createdAt,value
2018-08-09T00:01:24.933Z,6.97
2018-08-09T00:03:53.361Z,6.53
2018-08-09T00:06:21.654Z,6.80
2018-08-09T00:08:49.982Z,6.13
2018-08-09T00:11:18.278Z,6.63
2018-08-09T00:13:46.619Z,6.83
2018-08-09T00:16:14.911Z,6.53
2018-08-09T00:18:43.242Z,6.70
2018-08-09T00:21:11.526Z,6.67
2018-08-09T00:23:39.900Z,6.77
2018-08-09T00:26:08.179Z,6.90
2018-08-09T00:28:36.492Z,7.13
2018-08-09T00:31:04.832Z,6.93
2018-08-09T00:33:33.204Z,6.50
2018-08-09T00:36:01.547Z,7.07
2018-08-09T00:38:29.875Z,6.83
2018-08-09T00:40:58.170Z,6.80
2018-08-09T00:43:26.513Z,6.70
2018-08-09T00:45:54.835Z,6.87
2018-08-09T00:48:23.139Z,7.30
2018-08-09T00:50:51.462Z,7.17
2018-08-09T00:53:19.774Z,7.47
2018-08-09T00:55:48.084Z,8.03
2018-08-09T00:58:16.440Z,7.73
2018-08-09T01:00:44.745Z,7.73
2018-08-09T01:03:13.105Z,7.57
2018-08-09T01:05:41.509Z,7.80
2018-08-09T01:08:09.832Z,7.73
2018-08-09T01:10:38.151Z,7.80
2018-08-09T01:13:06.538Z,7.57
2018-08-09T01:15:34.843Z,6.87
2018-08-09T01:18:03.224Z,7.10
2018-08-09T01:20:31.499Z,6.80
2018-08-09T01:22:59.798Z,7.07
2018-08-09T01:25:28.403Z,7.40
2018-08-09T01:27:56.947Z,6.93
2018-08-09T01:30:25.248Z,6.93
2018-08-09T01:32:53.569Z,7.23
2018-08-09T01:35:21.910Z,6.97
2018-08-09T01:37:50.233Z,7.57
2018-08-09T01:40:18.572Z,6.90
2018-08-09T01:42:58.358Z,7.27
2018-08-09T01:45:26.680Z,7.03
2018-08-09T01:47:55.054Z,7.90
2018-08-09T01:50:23.388Z,7.93
2018-08-09T01:52:51.695Z,7.10
2018-08-09T01:55:20.027Z,7.53
2018-08-09T01:57:48.411Z,7.27
2018-08-09T02:00:16.717Z,7.63
2018-08-09T02:02:45.244Z,6.93
2018-08-09T02:05:13.607Z,7.17
2018-08-09T02:07:41.910Z,7.27
2018-08-09T02:10:10.269Z,6.90
2018-08-09T02:12:38.587Z,7.40
2018-08-09T02:15:06.925Z,7.77
2018-08-09T02:17:35.272Z,7.50
2018-08-09T02:20:03.689Z,7.53
2018-08-09T02:22:32.054Z,7.50
2018-08-09T02:25:00.400Z,7.63
2018-08-09T02:27:28.692Z,8.17
2018-08-09T02:29:57.019Z,7.77
2018-08-09T02:32:25.319Z,8.20
2018-08-09T02:34:53.741Z,8.23
2018-08-09T02:37:22.088Z,7.77
2018-08-09T02:39:50.410Z,7.70
2018-08-09T02:42:18.737Z,8.20
2018-08-09T02:44:47.067Z,7.60
2018-08-09T02:47:15.400Z,8.43
2018-08-09T02:49:43.726Z,7.80
2018-08-09T02:52:12.031Z,7.63
2018-08-09T02:54:40.342Z,7.60
2018-08-09T02:57:08.639Z,7.50
2018-08-09T02:59:36.961Z,7.77
2018-08-09T03:02:05.275Z,7.50
2018-08-09T03:04:33.586Z,8.57
2018-08-09T03:07:01.938Z,7.83
2018-08-09T03:09:30.281Z,7.93
2018-08-09T03:11:58.563Z,7.80
2018-08-09T03:14:26.919Z,7.90
2018-08-09T03:16:55.248Z,8.20
2018-08-09T03:19:23.557Z,8.57
2018-08-09T03:21:51.854Z,7.80
2018-08-09T03:24:20.196Z,8.07
2018-08-09T03:26:48.499Z,8.23
2018-08-09T03:29:16.812Z,8.40
2018-08-09T03:31:45.120Z,8.37
2018-08-09T03:34:13.444Z,8.30
2018-08-09T03:36:41.719Z,8.50
2018-08-09T03:39:11.615Z,9.33
2018-08-09T03:41:39.911Z,8.73
2018-08-09T03:44:08.572Z,8.50
2018-08-09T03:46:36.922Z,8.60
2018-08-09T03:49:05.269Z,8.53
2018-08-09T03:51:33.670Z,8.60
2018-08-09T03:54:01.967Z,9.00
2018-08-09T03:56:30.288Z,8.13
2018-08-09T03:58:58.561Z,8.33
2018-08-09T04:01:26.999Z,8.53
2018-08-09T04:03:55.368Z,8.53
2018-08-09T04:06:23.967Z,8.57
2018-08-09T04:08:52.331Z,8.17
2018-08-09T04:11:20.639Z,8.60
2018-08-09T04:13:48.939Z,8.77
2018-08-09T04:16:17.403Z,8.60
2018-08-09T04:18:45.708Z,8.60
2018-08-09T04:21:14.047Z,9.40
2018-08-09T04:23:42.364Z,9.07
2018-08-09T04:26:10.688Z,8.73
2018-08-09T04:28:38.980Z,9.87
2018-08-09T04:31:07.326Z,9.00
2018-08-09T04:33:35.647Z,8.90
2018-08-09T04:36:04.058Z,9.17
2018-08-09T04:38:32.395Z,9.23
2018-08-09T04:41:00.707Z,8.00
2018-08-09T04:43:28.999Z,9.57
2018-08-09T04:45:57.457Z,9.80
2018-08-09T04:48:25.928Z,8.60
2018-08-09T04:50:54.268Z,8.70
2018-08-09T04:53:22.555Z,9.87
2018-08-09T04:55:50.947Z,9.13
2018-08-09T04:58:19.265Z,8.73
2018-08-09T05:00:47.591Z,8.83
2018-08-09T05:03:15.899Z,9.00
2018-08-09T05:05:44.219Z,8.90
2018-08-09T05:08:15.167Z,8.17
2018-08-09T05:10:43.569Z,8.83
2018-08-09T05:13:11.874Z,9.33
2018-08-09T05:15:40.217Z,8.90
2018-08-09T05:18:08.534Z,10.07
2018-08-09T05:20:36.863Z,9.87
2018-08-09T05:23:05.261Z,9.63
2018-08-09T05:25:33.675Z,8.73
2018-08-09T05:28:02.016Z,8.37
2018-08-09T05:30:30.386Z,8.63
2018-08-09T05:32:58.743Z,9.50
2018-08-09T05:35:27.148Z,9.30
2018-08-09T05:37:55.453Z,9.80
2018-08-09T05:40:23.824Z,9.70
2018-08-09T05:42:52.107Z,9.57
2018-08-09T05:45:21.035Z,9.03
2018-08-09T05:47:49.305Z,9.13
2018-08-09T05:50:17.633Z,9.07
2018-08-09T05:52:46.101Z,8.37
2018-08-09T05:55:14.458Z,8.90
2018-08-09T05:57:42.837Z,8.43
2018-08-09T06:00:11.199Z,9.23
2018-08-09T06:02:39.587Z,8.37
2018-08-09T06:05:08.396Z,8.60
2018-08-09T06:07:36.706Z,9.03
2018-08-09T06:10:06.203Z,8.30
2018-08-09T06:12:34.558Z,8.53
2018-08-09T06:15:02.877Z,8.33
2018-08-09T06:17:31.201Z,8.27
2018-08-09T06:19:59.514Z,8.87
2018-08-09T06:22:27.846Z,8.93
2018-08-09T06:24:56.172Z,8.60
2018-08-09T06:27:24.540Z,9.43
2018-08-09T06:29:52.852Z,8.23
2018-08-09T06:32:21.182Z,9.37
2018-08-09T06:34:49.484Z,9.00
2018-08-09T06:37:17.836Z,8.50
2018-08-09T06:39:46.123Z,8.00
2018-08-09T06:42:14.443Z,7.83
2018-08-09T06:44:42.851Z,8.30
2018-08-09T06:47:13.368Z,7.60
2018-08-09T06:49:41.655Z,7.33
2018-08-09T06:52:10.663Z,8.20
2018-08-09T06:54:38.991Z,8.10
2018-08-09T06:57:10.678Z,7.10
2018-08-09T06:59:39.070Z,6.97
2018-08-09T07:02:07.460Z,8.00
2018-08-09T07:04:35.804Z,7.67
2018-08-09T07:07:04.185Z,8.33
2018-08-09T07:09:32.517Z,7.97
2018-08-09T07:12:00.824Z,8.27
2018-08-09T07:14:29.280Z,7.70
2018-08-09T07:16:57.646Z,7.97
2018-08-09T07:19:25.991Z,7.53
2018-08-09T07:21:54.327Z,7.83
2018-08-09T07:24:22.827Z,8.30
2018-08-09T07:26:51.174Z,7.43
2018-08-09T07:29:19.475Z,7.73
2018-08-09T07:31:47.891Z,7.47
2018-08-09T07:34:16.168Z,7.50
2018-08-09T07:36:44.517Z,7.27
2018-08-09T07:39:12.854Z,7.33
2018-08-09T07:41:41.132Z,7.33
2018-08-09T07:44:09.469Z,7.70
2018-08-09T07:46:37.789Z,7.70
2018-08-09T07:49:06.084Z,7.30
2018-08-09T07:51:34.427Z,7.47
2018-08-09T07:54:02.732Z,6.90
2018-08-09T07:56:31.072Z,7.00
2018-08-09T07:58:59.386Z,7.23
2018-08-09T08:01:27.727Z,7.63
2018-08-09T08:03:56.027Z,7.43
2018-08-09T08:06:24.418Z,7.50
2018-08-09T08:08:52.730Z,7.30
2018-08-09T08:11:21.044Z,6.80
2018-08-09T08:13:49.349Z,6.63
2018-08-09T08:16:17.667Z,6.93
2018-08-09T08:18:45.981Z,7.30
2018-08-09T08:21:14.284Z,6.97
2018-08-09T08:23:42.602Z,7.17
2018-08-09T08:26:10.951Z,6.60
2018-08-09T08:28:39.310Z,7.20
2018-08-09T08:31:07.622Z,6.60
2018-08-09T08:33:35.929Z,6.63
2018-08-09T08:36:04.222Z,7.00
2018-08-09T08:38:32.902Z,7.13
2018-08-09T08:41:01.224Z,7.03
2018-08-09T08:43:29.539Z,6.57
2018-08-09T08:45:57.836Z,6.87
2018-08-09T08:48:26.160Z,6.53
2018-08-09T08:50:54.494Z,6.57
2018-08-09T08:53:22.796Z,6.37
2018-08-09T08:55:51.106Z,6.97
2018-08-09T08:58:19.426Z,6.50
2018-08-09T09:00:47.766Z,7.00
2018-08-09T09:03:16.072Z,6.53
2018-08-09T09:05:44.382Z,6.73
2018-08-09T09:08:12.691Z,7.17
2018-08-09T09:10:41.047Z,6.23
2018-08-09T09:13:09.373Z,6.23
2018-08-09T09:15:37.694Z,6.60
2018-08-09T09:18:06.471Z,6.10
2018-08-09T09:27:33.986Z,6.23
2018-08-09T09:30:02.282Z,6.17
2018-08-09T09:32:30.607Z,6.40
2018-08-09T09:34:59.388Z,5.93
2018-08-09T09:37:27.732Z,6.30
2018-08-09T09:39:56.057Z,6.40
2018-08-09T09:42:24.383Z,6.20
2018-08-09T09:44:52.687Z,6.20
2018-08-09T09:47:20.999Z,5.93
2018-08-09T09:49:49.371Z,6.20
2018-08-09T09:52:17.647Z,6.23
2018-08-09T09:54:46.154Z,5.80
2018-08-09T09:57:14.479Z,6.50
2018-08-09T09:59:42.773Z,5.67
2018-08-09T10:02:11.091Z,5.87
2018-08-09T10:04:39.410Z,6.20
2018-08-09T10:07:07.830Z,6.00
2018-08-09T10:09:36.075Z,6.43
2018-08-09T10:12:04.391Z,6.00
2018-08-09T10:14:32.712Z,6.07
2018-08-09T10:17:01.030Z,5.73
2018-08-09T10:19:29.307Z,6.07
2018-08-09T10:21:57.604Z,5.50
2018-08-09T10:24:25.907Z,5.73
2018-08-09T10:26:54.231Z,6.60
2018-08-09T10:29:22.539Z,6.70
2018-08-09T10:31:50.902Z,6.47
2018-08-09T10:34:19.239Z,5.70
2018-08-09T10:36:47.555Z,6.00
2018-08-09T10:39:15.857Z,5.40
2018-08-09T10:41:44.175Z,6.30
2018-08-09T10:44:12.502Z,9.50
2018-08-09T10:46:40.811Z,7.10
2018-08-09T10:49:09.268Z,5.95
2018-08-09T10:51:37.604Z,5.72
2018-08-09T10:54:05.955Z,5.92
2018-08-09T10:56:34.293Z,5.90
2018-08-09T10:59:02.645Z,5.78
2018-08-09T11:01:30.988Z,5.90
2018-08-09T11:03:59.359Z,5.90
2018-08-09T11:06:27.675Z,5.62
2018-08-09T11:08:55.998Z,6.03
2018-08-09T11:11:24.328Z,6.10
2018-08-09T11:13:52.637Z,5.65
2018-08-09T11:16:20.964Z,5.97
2018-08-09T11:18:49.289Z,6.08
2018-08-09T11:21:17.617Z,6.50
2018-08-09T11:23:45.975Z,6.00
2018-08-09T11:26:14.255Z,6.05
2018-08-09T11:28:42.573Z,6.30
2018-08-09T11:31:10.867Z,6.10
2018-08-09T11:33:39.194Z,6.22
2018-08-09T11:36:07.504Z,6.53
2018-08-09T11:38:35.800Z,6.33
2018-08-09T11:41:04.096Z,5.75
2018-08-09T11:43:32.417Z,5.62
2018-08-09T11:46:00.759Z,5.45
2018-08-09T11:48:29.067Z,6.15
2018-08-09T11:50:57.349Z,6.45
2018-08-09T11:53:25.659Z,7.12
2018-08-09T11:55:53.957Z,5.60
2018-08-09T11:58:22.554Z,5.75
2018-08-09T12:00:50.891Z,5.67
2018-08-09T12:03:19.496Z,5.58
2018-08-09T12:05:47.791Z,5.08
2018-08-09T12:08:16.127Z,5.58
2018-08-09T12:10:44.495Z,5.65
2018-08-09T12:13:12.800Z,5.80
2018-08-09T12:15:41.153Z,5.72
2018-08-09T12:18:09.477Z,5.35
2018-08-09T12:20:37.821Z,5.70
2018-08-09T12:23:06.159Z,5.28
2018-08-09T12:25:34.501Z,5.47
2018-08-09T12:28:02.817Z,5.00
2018-08-09T12:30:31.145Z,5.15
2018-08-09T12:32:59.469Z,5.30
2018-08-09T12:35:27.806Z,6.03
2018-08-09T12:37:56.133Z,5.83
2018-08-09T12:40:24.425Z,5.20
2018-08-09T12:42:52.740Z,5.75
2018-08-09T12:45:21.087Z,5.42
2018-08-09T12:47:49.402Z,5.30
2018-08-09T12:50:17.725Z,5.53
2018-08-09T12:52:46.030Z,5.25
2018-08-09T12:55:14.840Z,4.62
2018-08-09T12:57:43.142Z,3.20
2018-08-09T13:00:13.169Z,2.15
2018-08-09T13:02:41.919Z,2.40
2018-08-09T13:05:11.627Z,1.70
2018-08-09T13:07:40.328Z,2.10
2018-08-09T13:10:10.467Z,1.80
2018-08-09T13:12:38.792Z,2.07
2018-08-09T13:15:09.642Z,2.03
2018-08-09T13:17:38.111Z,2.30
2018-08-09T13:20:07.925Z,2.90
2018-08-09T13:22:36.379Z,3.50
2018-08-09T13:25:05.301Z,3.17
2018-08-09T13:27:33.657Z,2.70
2018-08-09T13:30:01.995Z,3.17
2018-08-09T13:32:30.351Z,3.37
2018-08-09T13:34:58.703Z,2.73
2018-08-09T13:37:27.007Z,3.00
2018-08-09T13:39:55.326Z,3.23
2018-08-09T13:42:23.687Z,3.33
2018-08-09T13:44:52.032Z,3.23
2018-08-09T13:47:20.307Z,2.73
2018-08-09T13:49:48.617Z,3.50
2018-08-09T13:52:16.935Z,3.73
2018-08-09T13:54:45.252Z,3.50
2018-08-09T13:57:13.646Z,3.93
2018-08-09T13:59:41.979Z,3.90
2018-08-09T14:02:10.295Z,3.90
2018-08-09T14:04:38.631Z,3.57
2018-08-09T14:07:07.820Z,3.93
2018-08-09T14:09:36.166Z,4.00
2018-08-09T14:12:04.455Z,3.53
2018-08-09T14:14:32.814Z,4.03
2018-08-09T14:17:01.137Z,3.73
2018-08-09T14:19:29.457Z,3.70
2018-08-09T14:21:57.743Z,4.43
2018-08-09T14:24:26.201Z,4.03
2018-08-09T14:26:54.508Z,4.37
2018-08-09T14:29:22.831Z,4.17
2018-08-09T14:31:51.127Z,4.43
2018-08-09T14:34:19.452Z,4.20
2018-08-09T14:36:47.771Z,4.27
2018-08-09T14:39:16.107Z,4.63
2018-08-09T14:41:44.383Z,4.27
2018-08-09T14:44:12.715Z,4.27
2018-08-09T14:46:41.011Z,4.83
2018-08-09T14:49:09.351Z,5.07
2018-08-09T14:51:37.675Z,4.47
2018-08-09T14:54:06.007Z,4.30
2018-08-09T14:56:34.472Z,4.23
2018-08-09T14:59:02.839Z,4.47
2018-08-09T15:01:31.135Z,4.27
2018-08-09T15:03:59.438Z,3.80
2018-08-09T15:06:27.807Z,3.77
2018-08-09T15:08:56.125Z,2.77
2018-08-09T15:11:24.646Z,2.40
2018-08-09T15:13:52.959Z,2.50
2018-08-09T15:16:21.351Z,2.50
2018-08-09T15:18:49.696Z,2.70
2018-08-09T15:21:18.007Z,2.80
2018-08-09T15:23:46.349Z,2.23
2018-08-09T15:26:14.671Z,2.33
2018-08-09T15:28:42.986Z,2.20
2018-08-09T15:31:11.323Z,1.90
2018-08-09T15:33:39.650Z,2.37
2018-08-09T15:36:08.048Z,2.40
2018-08-09T15:38:36.441Z,2.20
2018-08-09T15:41:04.833Z,2.83
2018-08-09T15:43:33.136Z,2.40
2018-08-09T15:46:01.674Z,2.30
2018-08-09T15:48:30.255Z,2.30
2018-08-09T15:50:58.598Z,2.10
2018-08-09T15:53:26.898Z,2.03
2018-08-09T15:55:55.339Z,2.30
2018-08-09T15:58:24.331Z,2.10
2018-08-09T16:00:52.675Z,2.63
2018-08-09T16:03:22.969Z,2.30
2018-08-09T16:05:51.268Z,1.90
2018-08-09T16:08:19.989Z,2.13
2018-08-09T16:10:48.347Z,1.90
2018-08-09T16:13:16.666Z,2.10
2018-08-09T16:15:44.979Z,2.30
2018-08-09T16:18:13.270Z,2.17
2018-08-09T16:20:41.627Z,2.27
2018-08-09T16:23:10.033Z,2.07
2018-08-09T16:25:38.296Z,2.00
2018-08-09T16:28:06.763Z,2.10
2018-08-09T16:30:35.104Z,2.23
2018-08-09T16:33:03.423Z,2.47
2018-08-09T16:35:31.814Z,2.40
2018-08-09T16:38:00.124Z,2.50
2018-08-09T16:40:28.462Z,2.57
2018-08-09T16:42:56.756Z,2.30
2018-08-09T16:45:27.243Z,2.37
2018-08-09T16:47:55.563Z,2.30
2018-08-09T16:50:25.110Z,2.40
2018-08-09T16:52:53.533Z,2.00
2018-08-09T16:55:22.977Z,2.20
2018-08-09T16:57:51.276Z,1.93
2018-08-09T17:00:21.178Z,2.40
2018-08-09T17:02:50.005Z,1.93
2018-08-09T17:05:20.384Z,2.70
2018-08-09T17:07:48.849Z,3.20
2018-08-09T17:10:22.421Z,2.70
2018-08-09T17:12:50.958Z,2.37
2018-08-09T17:15:21.562Z,2.10
2018-08-09T17:17:50.046Z,1.93
2018-08-09T17:20:22.710Z,2.33
2018-08-09T17:22:51.046Z,2.00
2018-08-09T17:25:19.452Z,2.23
2018-08-09T17:27:48.521Z,2.73
2018-08-09T17:30:22.636Z,3.43
2018-08-09T17:32:50.950Z,2.30
2018-08-09T17:35:19.558Z,2.00
2018-08-09T17:37:47.902Z,2.00
2018-08-09T17:40:19.821Z,2.07
2018-08-09T17:42:49.203Z,2.10
2018-08-09T17:45:18.233Z,2.00
2018-08-09T17:47:46.648Z,2.20
2018-08-09T17:50:15.068Z,2.00
2018-08-09T17:52:43.806Z,1.77
2018-08-09T17:55:14.191Z,1.77
2018-08-09T17:57:43.729Z,1.70
2018-08-09T18:00:15.031Z,1.80
2018-08-09T18:02:44.063Z,1.90
2018-08-09T18:05:12.548Z,1.63
2018-08-09T18:07:40.902Z,1.83
2018-08-09T18:10:12.775Z,2.00
2018-08-09T18:12:41.368Z,2.40
2018-08-09T18:15:09.703Z,2.40
2018-08-09T18:17:38.121Z,1.93
2018-08-09T18:20:11.315Z,2.33
2018-08-09T18:22:39.663Z,1.70
2018-08-09T18:25:09.299Z,1.50
2018-08-09T18:27:37.764Z,1.80
2018-08-09T18:30:09.374Z,1.70
2018-08-09T18:32:38.265Z,1.70
2018-08-09T18:35:07.766Z,1.60
2018-08-09T18:37:36.468Z,1.60
2018-08-09T18:40:06.957Z,1.50
2018-08-09T18:42:35.457Z,1.73
2018-08-09T18:45:03.932Z,2.53
2018-08-09T18:47:32.287Z,1.70
2018-08-09T18:50:01.550Z,1.70
2018-08-09T18:52:30.032Z,1.70
2018-08-09T18:54:58.338Z,1.57
2018-08-09T18:57:26.724Z,1.50
2018-08-09T18:59:54.999Z,1.40
2018-08-09T19:02:23.397Z,1.50
2018-08-09T19:04:51.787Z,2.80
2018-08-09T19:07:20.199Z,2.70
2018-08-09T19:09:48.520Z,1.90
2018-08-09T19:12:16.824Z,1.60
2018-08-09T19:14:45.300Z,1.73
2018-08-09T19:17:13.772Z,1.67
2018-08-09T19:19:42.114Z,1.87
2018-08-09T19:22:10.490Z,1.93
2018-08-09T19:24:38.909Z,11.17
2018-08-09T19:27:07.368Z,3.47
2018-08-09T19:29:35.898Z,1.50
2018-08-09T19:32:04.424Z,1.80
2018-08-09T19:34:32.735Z,1.93
2018-08-09T19:37:01.207Z,2.17
2018-08-09T19:39:29.589Z,2.90
2018-08-09T19:41:58.032Z,1.87
2018-08-09T19:44:26.395Z,1.70
2018-08-09T19:46:54.845Z,1.60
2018-08-09T19:49:23.212Z,1.60
2018-08-09T19:51:51.607Z,1.60
2018-08-09T19:54:19.972Z,1.80
2018-08-09T19:56:48.318Z,2.07
2018-08-09T19:59:16.785Z,1.67
2018-08-09T20:01:45.187Z,1.20
2018-08-09T20:04:13.513Z,1.70
2018-08-09T20:06:41.806Z,1.53
2018-08-09T20:09:11.100Z,1.50
2018-08-09T20:11:40.074Z,1.40
2018-08-09T20:14:08.502Z,1.57
2018-08-09T20:16:36.960Z,2.87
2018-08-09T20:19:05.388Z,3.97
2018-08-09T20:21:33.709Z,5.97
2018-08-09T20:24:02.007Z,2.10
2018-08-09T20:26:30.408Z,1.30
2018-08-09T20:28:58.793Z,4.03
2018-08-09T20:31:27.190Z,2.50
2018-08-09T20:33:55.512Z,1.20
2018-08-09T20:36:23.837Z,1.20
2018-08-09T20:38:52.238Z,1.30
2018-08-09T20:41:20.642Z,1.50
2018-08-09T20:43:48.956Z,1.00
2018-08-09T20:46:17.227Z,1.10
2018-08-09T20:48:45.627Z,1.10
2018-08-09T20:51:13.914Z,1.30
2018-08-09T20:53:42.239Z,1.20
2018-08-09T20:56:10.571Z,1.37
2018-08-09T20:58:38.917Z,1.20
2018-08-09T21:01:07.236Z,1.40
2018-08-09T21:03:35.605Z,1.40
2018-08-09T21:06:03.914Z,1.73
2018-08-09T21:08:32.223Z,1.30
2018-08-09T21:11:00.558Z,1.30
2018-08-09T21:13:28.871Z,1.30
2018-08-09T21:15:57.171Z,1.17
2018-08-09T21:18:25.459Z,1.30
2018-08-09T21:20:53.755Z,1.10
2018-08-09T21:23:22.067Z,1.27
2018-08-09T21:25:50.435Z,1.27
2018-08-09T21:28:18.731Z,1.40
2018-08-09T21:30:47.069Z,1.30
2018-08-09T21:33:15.389Z,1.00
2018-08-09T21:35:43.705Z,1.10
2018-08-09T21:38:12.046Z,1.27
2018-08-09T21:40:40.444Z,2.00
2018-08-09T21:43:08.787Z,1.47
2018-08-09T21:45:37.088Z,1.30
2018-08-09T21:48:05.632Z,1.20
2018-08-09T21:50:33.915Z,4.33
2018-08-09T21:53:02.257Z,6.40
2018-08-09T21:55:30.614Z,6.67
2018-08-09T21:57:58.954Z,1.53
2018-08-09T22:01:00.320Z,1.30
2018-08-09T22:03:34.079Z,1.30
2018-08-09T22:06:07.747Z,1.40
2018-08-09T22:08:41.440Z,1.40
2018-08-09T22:11:16.608Z,1.20
2018-08-09T22:13:50.617Z,1.27
2018-08-09T22:16:24.409Z,1.30
2018-08-09T22:18:58.162Z,1.37
2018-08-09T22:21:32.290Z,1.40
2018-08-09T22:24:00.620Z,1.30
2018-08-09T22:26:28.931Z,1.10
2018-08-09T22:28:57.278Z,1.30
2018-08-09T22:31:25.612Z,1.03
2018-08-09T22:33:53.974Z,1.20
2018-08-09T22:36:22.333Z,1.20
2018-08-09T22:38:50.697Z,1.00
2018-08-09T22:41:19.011Z,1.00
2018-08-09T22:43:47.356Z,1.00
2018-08-09T22:46:15.694Z,0.90
2018-08-09T22:48:44.028Z,1.00
2018-08-09T22:51:12.332Z,1.10
2018-08-09T22:53:40.698Z,1.03
2018-08-09T22:56:09.031Z,1.03
2018-08-09T22:58:37.391Z,1.20
2018-08-09T23:01:05.678Z,1.00
2018-08-09T23:03:34.029Z,0.90
2018-08-09T23:06:02.386Z,1.00
2018-08-09T23:08:30.720Z,0.80
2018-08-09T23:10:59.023Z,1.00
2018-08-09T23:13:27.338Z,0.90
2018-08-09T23:15:55.670Z,1.00
2018-08-09T23:18:24.012Z,1.00
2018-08-09T23:20:52.334Z,1.03
2018-08-09T23:23:20.610Z,1.13
2018-08-09T23:25:48.935Z,0.90
2018-08-09T23:28:17.284Z,0.90
2018-08-09T23:30:45.617Z,0.80
2018-08-09T23:33:13.914Z,0.70
2018-08-09T23:35:42.236Z,0.70
2018-08-09T23:38:10.532Z,0.70
2018-08-09T23:40:38.860Z,0.50
2018-08-09T23:43:07.155Z,0.60
2018-08-09T23:45:35.496Z,0.50
2018-08-09T23:48:03.842Z,0.50
2018-08-09T23:50:32.163Z,0.57
2018-08-09T23:53:00.476Z,0.40
2018-08-09T23:55:28.826Z,0.50
2018-08-09T23:57:57.207Z,0.60
